Time;durP1;ratioP1;P1;durP2;ratioP2;P2;SDS_P1;SDS_P2;PMS_P1;PMS_P2;Temp;Humidity;BMP_temperature;BMP_pressure;BME280_temperature;BME280_humidity;BME280_pressure;Samples;Min_cycle;Max_cycle;Signal;HPM_P1;HPM_P2
2021/06/28 00:02:12;;;;;;;18.90;16.63;;;18.10;99.90;;;;;;5117963;28;20192;-79
2021/06/28 00:04:39;;;;;;;19.70;16.42;;;18.10;99.90;;;;;;5118684;28;20249;-84
2021/06/28 00:07:07;;;;;;;17.30;15.48;;;18.10;99.90;;;;;;5098526;28;20197;-82
2021/06/28 00:09:34;;;;;;;17.77;15.95;;;18.10;99.90;;;;;;5108386;27;20229;-80
2021/06/28 00:12:01;;;;;;;18.50;16.55;;;18.00;99.90;;;;;;5139666;27;20206;-82
2021/06/28 00:14:28;;;;;;;17.73;15.98;;;18.10;99.90;;;;;;5139259;27;20194;-82
2021/06/28 00:16:55;;;;;;;15.60;14.00;;;18.10;99.90;;;;;;5137083;27;20203;-84
2021/06/28 00:19:22;;;;;;;20.02;16.83;;;18.10;99.90;;;;;;5118808;28;20324;-84
2021/06/28 00:21:48;;;;;;;19.35;17.35;;;18.00;99.90;;;;;;5118125;28;20196;-83
2021/06/28 00:24:16;;;;;;;17.52;15.63;;;18.00;99.90;;;;;;5118751;28;20207;-79
2021/06/28 00:26:43;;;;;;;17.85;15.85;;;18.00;99.90;;;;;;5118361;28;20184;-83
2021/06/28 00:29:10;;;;;;;22.45;16.92;;;18.00;99.90;;;;;;5115037;28;20199;-84
2021/06/28 00:31:38;;;;;;;17.67;15.27;;;18.00;99.90;;;;;;5118586;28;20203;-82
2021/06/28 00:34:05;;;;;;;17.90;16.00;;;18.00;99.90;;;;;;5118508;28;20253;-83
2021/06/28 00:36:31;;;;;;;17.88;16.08;;;18.00;99.90;;;;;;5118255;28;20195;-82
2021/06/28 00:38:58;;;;;;;17.50;15.68;;;18.00;99.90;;;;;;5128985;27;20533;-81
2021/06/28 00:41:27;;;;;;;17.85;15.57;;;17.90;99.90;;;;;;5139140;27;20191;-81
2021/06/28 00:43:53;;;;;;;25.27;18.08;;;17.90;99.90;;;;;;5138820;27;20211;-80
2021/06/28 00:46:20;;;;;;;20.65;17.65;;;17.90;99.90;;;;;;5138979;27;20190;-83
2021/06/28 00:48:47;;;;;;;18.90;16.95;;;17.90;99.90;;;;;;5118255;27;20223;-83
2021/06/28 00:51:14;;;;;;;19.08;16.95;;;17.90;99.90;;;;;;5125405;27;20214;-84
2021/06/28 00:53:41;;;;;;;18.25;16.33;;;17.90;99.90;;;;;;5138778;27;20199;-83
2021/06/28 00:56:12;;;;;;;21.45;17.85;;;17.90;99.90;;;;;;5138504;27;20200;-83
2021/06/28 00:58:41;;;;;;;21.05;18.83;;;17.90;99.90;;;;;;5138259;27;20734;-82
2021/06/28 01:01:09;;;;;;;22.20;19.05;;;17.90;99.90;;;;;;5117722;27;20553;-81
2021/06/28 01:03:37;;;;;;;24.30;19.85;;;17.90;99.90;;;;;;5097616;28;20192;-81
2021/06/28 01:06:04;;;;;;;23.42;20.27;;;17.80;99.90;;;;;;5096808;28;20599;-82
2021/06/28 01:08:31;;;;;;;20.75;17.70;;;17.80;99.90;;;;;;5108253;28;20196;-82
2021/06/28 01:10:58;;;;;;;20.48;18.30;;;17.80;99.90;;;;;;5117282;28;20222;-80
2021/06/28 01:13:26;;;;;;;23.75;20.38;;;17.80;99.90;;;;;;5116829;28;20207;-82
2021/06/28 01:15:55;;;;;;;24.67;20.27;;;17.80;99.90;;;;;;5117862;28;20235;-83
2021/06/28 01:18:22;;;;;;;24.00;20.50;;;17.80;99.90;;;;;;5116559;28;20236;-83
2021/06/28 01:20:49;;;;;;;21.75;19.45;;;17.80;99.90;;;;;;5117398;28;20215;-83
2021/06/28 01:23:20;;;;;;;25.95;20.23;;;17.80;99.90;;;;;;5117623;28;20702;-82
2021/06/28 01:25:48;;;;;;;24.65;21.50;;;17.80;99.90;;;;;;5115959;28;20207;-83
2021/06/28 01:28:16;;;;;;;24.92;21.48;;;17.80;99.90;;;;;;5117287;28;20251;-82
2021/06/28 01:30:42;;;;;;;24.13;20.98;;;17.80;99.90;;;;;;5116634;28;20588;-82
2021/06/28 01:33:10;;;;;;;22.15;19.55;;;17.80;99.90;;;;;;5116973;28;20188;-82
2021/06/28 01:35:39;;;;;;;24.10;21.50;;;17.80;99.90;;;;;;5117428;28;20207;-82
2021/06/28 01:38:05;;;;;;;24.75;22.13;;;17.80;99.90;;;;;;5116708;28;20196;-84
2021/06/28 01:40:34;;;;;;;26.25;21.25;;;17.80;99.90;;;;;;5116796;28;20200;-81
2021/06/28 01:43:00;;;;;;;26.20;21.25;;;17.80;99.90;;;;;;5116448;28;20208;-82
2021/06/28 01:45:27;;;;;;;24.70;21.20;;;17.80;99.90;;;;;;5116713;28;20207;-81
2021/06/28 01:47:57;;;;;;;26.85;22.08;;;17.80;99.90;;;;;;5124383;27;20199;-83
2021/06/28 01:50:27;;;;;;;22.83;19.20;;;17.80;99.90;;;;;;5137481;27;20242;-84
2021/06/28 01:52:54;;;;;;;24.27;21.73;;;17.70;99.90;;;;;;5137481;27;20801;-82
2021/06/28 01:55:22;;;;;;;24.08;20.90;;;17.70;99.90;;;;;;5135773;27;20207;-83
2021/06/28 01:57:53;;;;;;;23.83;21.13;;;17.70;99.90;;;;;;5137252;27;20622;-82
2021/06/28 02:00:23;;;;;;;23.27;20.75;;;17.70;99.90;;;;;;5137047;27;20227;-83
2021/06/28 02:03:03;;;;;;;26.00;21.33;;;17.70;99.90;;;;;;5135231;27;20202;-85
2021/06/28 02:05:33;;;;;;;21.48;18.40;;;17.60;99.90;;;;;;5116763;28;20211;-83
2021/06/28 02:07:59;;;;;;;23.00;20.55;;;17.50;99.90;;;;;;5124245;27;20621;-84
2021/06/28 02:10:26;;;;;;;19.75;17.65;;;17.50;99.90;;;;;;5137150;27;20226;-84
2021/06/28 02:12:55;;;;;;;22.73;19.58;;;17.50;99.90;;;;;;5124213;27;20208;-83
2021/06/28 02:15:23;;;;;;;19.00;17.13;;;17.50;99.90;;;;;;5115836;28;20196;-82
2021/06/28 02:17:50;;;;;;;20.05;17.40;;;17.50;99.90;;;;;;5116535;28;20235;-84
2021/06/28 02:20:19;;;;;;;23.08;20.60;;;17.40;99.90;;;;;;5122563;27;20227;-82
2021/06/28 02:22:48;;;;;;;19.92;17.90;;;17.40;99.90;;;;;;5136138;27;20226;-82
2021/06/28 02:25:15;;;;;;;19.77;17.67;;;17.40;99.90;;;;;;5135541;27;20518;-82
2021/06/28 02:27:43;;;;;;;19.52;17.52;;;17.40;99.90;;;;;;5095715;28;20205;-82
2021/06/28 02:30:14;;;;;;;21.30;17.23;;;17.40;99.90;;;;;;5095360;28;20193;-80
2021/06/28 02:32:42;;;;;;;21.40;18.65;;;17.30;99.90;;;;;;5101334;28;20208;-83
2021/06/28 02:35:11;;;;;;;19.50;17.08;;;17.30;99.90;;;;;;5115864;28;20200;-82
2021/06/28 02:37:40;;;;;;;19.98;17.95;;;17.30;99.90;;;;;;5115810;28;20206;-81
2021/06/28 02:40:09;;;;;;;17.88;15.98;;;17.30;99.90;;;;;;5125679;27;20225;-81
2021/06/28 02:42:36;;;;;;;21.05;16.77;;;17.30;99.90;;;;;;5136130;27;20207;-83
2021/06/28 02:45:03;;;;;;;19.77;17.60;;;17.30;99.90;;;;;;5128688;27;20207;-85
2021/06/28 02:47:32;;;;;;;21.50;16.95;;;17.30;99.90;;;;;;5115930;28;20604;-81
2021/06/28 02:49:59;;;;;;;20.02;16.30;;;17.30;99.90;;;;;;5114764;28;20627;-82
2021/06/28 02:52:25;;;;;;;19.40;15.98;;;17.20;99.90;;;;;;5115796;28;20196;-82
2021/06/28 02:54:52;;;;;;;17.67;14.65;;;17.30;99.90;;;;;;5115661;28;20192;-82
2021/06/28 02:57:19;;;;;;;19.48;15.43;;;17.20;99.90;;;;;;5115021;28;20243;-81
2021/06/28 02:59:45;;;;;;;17.63;15.27;;;17.20;99.90;;;;;;5115547;28;20227;-80
2021/06/28 03:02:12;;;;;;;17.77;15.15;;;17.20;99.90;;;;;;5115887;28;20211;-80
2021/06/28 03:04:40;;;;;;;16.85;13.98;;;17.20;99.90;;;;;;5115174;28;20204;-82
2021/06/28 03:07:07;;;;;;;16.77;14.80;;;17.20;99.90;;;;;;5115077;28;20208;-82
2021/06/28 03:09:34;;;;;;;17.93;15.60;;;17.20;99.90;;;;;;5115902;28;20223;-83
2021/06/28 03:12:00;;;;;;;16.77;15.02;;;17.20;99.90;;;;;;5114673;28;20215;-82
2021/06/28 03:14:27;;;;;;;20.00;16.35;;;17.20;99.90;;;;;;5115551;28;20196;-82
2021/06/28 03:16:54;;;;;;;18.55;15.32;;;17.20;99.90;;;;;;5114919;28;20203;-82
2021/06/28 03:19:21;;;;;;;16.00;14.07;;;17.20;99.90;;;;;;5114963;28;20242;-82
2021/06/28 03:21:49;;;;;;;16.73;14.10;;;17.20;99.90;;;;;;5115532;28;20210;-82
2021/06/28 03:24:16;;;;;;;16.77;13.93;;;17.30;99.90;;;;;;5114817;28;20207;-79
2021/06/28 03:26:43;;;;;;;17.45;15.07;;;17.20;99.90;;;;;;5115220;28;20192;-83
2021/06/28 03:29:10;;;;;;;15.50;13.52;;;17.20;99.90;;;;;;5115320;28;20592;-82
2021/06/28 03:31:36;;;;;;;16.38;14.20;;;17.20;99.90;;;;;;5115671;28;20196;-82
2021/06/28 03:34:03;;;;;;;18.88;15.93;;;17.20;99.90;;;;;;5130820;28;20210;-81
2021/06/28 03:36:30;;;;;;;18.95;14.70;;;17.20;99.90;;;;;;5138792;27;20202;-81
2021/06/28 03:38:58;;;;;;;17.42;15.05;;;17.20;99.90;;;;;;5139346;27;20215;-83
2021/06/28 03:41:25;;;;;;;16.67;14.88;;;17.20;99.90;;;;;;5139898;27;20268;-82
2021/06/28 03:43:51;;;;;;;18.33;14.57;;;17.20;99.90;;;;;;5140119;27;20230;-79
2021/06/28 03:46:18;;;;;;;16.65;14.45;;;17.20;99.90;;;;;;5137873;27;20199;-80
2021/06/28 03:48:45;;;;;;;17.27;14.05;;;17.30;99.90;;;;;;5140028;27;20202;-82
2021/06/28 03:51:12;;;;;;;15.40;13.75;;;17.30;99.90;;;;;;5139551;27;20603;-83
2021/06/28 03:53:39;;;;;;;15.90;14.20;;;17.30;99.90;;;;;;5137519;27;20286;-81
2021/06/28 03:56:08;;;;;;;22.08;15.50;;;17.30;99.90;;;;;;5139732;27;20200;-82
2021/06/28 03:58:36;;;;;;;17.55;14.25;;;17.30;99.90;;;;;;5137895;27;20603;-82
2021/06/28 04:01:03;;;;;;;16.55;12.45;;;17.30;99.90;;;;;;5138858;27;20206;-81
2021/06/28 04:03:32;;;;;;;14.95;13.35;;;17.30;99.90;;;;;;5138275;27;20198;-80
2021/06/28 04:06:03;;;;;;;15.38;13.68;;;17.40;99.90;;;;;;5139318;27;20199;-81
2021/06/28 04:08:30;;;;;;;16.45;14.75;;;17.40;99.90;;;;;;5139088;27;20211;-82
2021/06/28 04:10:57;;;;;;;17.00;14.27;;;17.30;99.90;;;;;;5131458;27;20216;-81
2021/06/28 04:13:25;;;;;;;17.58;14.38;;;17.30;99.90;;;;;;5118783;28;20196;-82
2021/06/28 04:15:52;;;;;;;15.48;13.85;;;17.30;99.90;;;;;;5118097;28;20210;-81
2021/06/28 04:18:19;;;;;;;18.20;14.13;;;17.30;99.90;;;;;;5118798;28;20228;-82
2021/06/28 04:20:46;;;;;;;15.75;13.40;;;17.30;99.90;;;;;;5125283;27;20638;-82
2021/06/28 04:23:13;;;;;;;15.25;13.65;;;17.30;99.90;;;;;;5138753;27;20199;-83
2021/06/28 04:25:40;;;;;;;16.50;13.95;;;17.40;99.90;;;;;;5138995;27;20199;-82
2021/06/28 04:28:07;;;;;;;16.92;14.25;;;17.40;99.90;;;;;;5138905;27;20203;-81
2021/06/28 04:30:35;;;;;;;15.68;13.68;;;17.40;99.90;;;;;;5137573;27;20210;-82
2021/06/28 04:33:02;;;;;;;16.63;13.13;;;17.40;99.90;;;;;;5139042;27;20191;-82
2021/06/28 04:35:30;;;;;;;14.55;13.05;;;17.40;99.90;;;;;;5136683;27;20607;-82
2021/06/28 04:37:58;;;;;;;15.80;13.25;;;17.40;99.90;;;;;;5139037;27;20187;-82
2021/06/28 04:40:26;;;;;;;15.15;13.55;;;17.40;99.90;;;;;;5138812;27;20218;-82
2021/06/28 04:42:54;;;;;;;19.77;15.00;;;17.50;99.90;;;;;;5137731;27;20207;-81
2021/06/28 04:45:21;;;;;;;14.70;13.20;;;17.50;99.90;;;;;;5138676;27;20187;-83
2021/06/28 04:47:50;;;;;;;15.63;13.23;;;17.50;99.90;;;;;;5137370;27;20195;-82
2021/06/28 04:50:18;;;;;;;15.15;13.15;;;17.50;99.90;;;;;;5138368;27;20191;-82
2021/06/28 04:52:45;;;;;;;16.33;13.32;;;17.60;99.90;;;;;;5117739;28;20210;-82
2021/06/28 04:55:14;;;;;;;14.45;12.93;;;17.60;99.90;;;;;;5118031;28;20218;-81
2021/06/28 04:57:43;;;;;;;16.58;13.95;;;17.70;99.90;;;;;;5118112;28;20199;-81
2021/06/28 05:00:13;;;;;;;17.27;13.88;;;17.80;99.90;;;;;;5117829;28;20226;-81
2021/06/28 05:02:40;;;;;;;17.17;14.48;;;17.90;99.90;;;;;;5117176;28;20204;-81
2021/06/28 05:05:10;;;;;;;13.73;12.18;;;18.00;99.90;;;;;;5117245;28;20200;-80
2021/06/28 05:07:36;;;;;;;14.88;13.18;;;18.20;99.90;;;;;;5117929;28;20200;-82
2021/06/28 05:10:05;;;;;;;14.57;12.20;;;18.40;99.90;;;;;;5122093;27;20219;-81
2021/06/28 05:12:32;;;;;;;13.32;11.57;;;18.60;99.90;;;;;;5137910;27;20409;-81
2021/06/28 05:14:59;;;;;;;14.25;11.65;;;18.90;99.90;;;;;;5138017;27;20203;-82
2021/06/28 05:17:26;;;;;;;12.75;11.48;;;19.20;99.90;;;;;;5118988;27;20219;-81
2021/06/28 05:19:53;;;;;;;12.10;10.90;;;19.30;99.90;;;;;;5117320;28;20208;-82
2021/06/28 05:22:21;;;;;;;11.55;10.32;;;19.30;99.90;;;;;;5117501;28;20287;-84
2021/06/28 05:24:48;;;;;;;12.55;10.43;;;19.40;99.90;;;;;;5116539;28;20243;-81
2021/06/28 05:27:16;;;;;;;11.13;10.02;;;19.70;99.90;;;;;;5117473;28;20253;-81
2021/06/28 05:29:42;;;;;;;11.05;9.95;;;19.80;99.90;;;;;;5117190;28;20253;-82
2021/06/28 05:32:09;;;;;;;11.60;9.60;;;20.00;99.90;;;;;;5116685;28;20210;-83
2021/06/28 05:34:36;;;;;;;13.00;9.98;;;20.20;99.90;;;;;;5135239;27;20214;-81
2021/06/28 05:37:03;;;;;;;13.18;10.60;;;20.40;99.90;;;;;;5137822;27;20191;-81
2021/06/28 05:39:32;;;;;;;11.85;9.52;;;20.50;99.90;;;;;;5133935;27;20223;-82
2021/06/28 05:41:58;;;;;;;10.30;9.25;;;20.50;99.90;;;;;;5116931;28;20199;-81
2021/06/28 05:44:27;;;;;;;11.27;10.05;;;20.40;99.90;;;;;;5117015;28;20189;-83
2021/06/28 05:46:54;;;;;;;10.73;9.63;;;20.40;99.90;;;;;;5116475;28;20257;-81
2021/06/28 05:49:21;;;;;;;11.90;10.13;;;20.30;99.90;;;;;;5116065;28;20204;-82
2021/06/28 05:51:48;;;;;;;11.43;9.88;;;20.20;99.90;;;;;;5116890;28;20204;-80
2021/06/28 05:54:14;;;;;;;11.63;10.43;;;20.00;99.90;;;;;;5116330;27;20199;-82
2021/06/28 05:56:43;;;;;;;13.10;10.55;;;20.10;99.90;;;;;;5116674;28;20214;-80
2021/06/28 05:59:09;;;;;;;11.18;9.95;;;20.00;99.90;;;;;;5116189;28;20188;-81
2021/06/28 06:01:38;;;;;;;12.38;10.77;;;20.00;99.90;;;;;;5116169;28;20203;-80
2021/06/28 06:04:07;;;;;;;10.85;9.75;;;19.90;99.90;;;;;;5116215;28;20208;-81
2021/06/28 06:06:34;;;;;;;10.30;9.20;;;20.00;99.90;;;;;;5117136;28;20206;-82
2021/06/28 06:09:01;;;;;;;13.32;11.05;;;20.00;99.90;;;;;;5116554;28;20211;-82
2021/06/28 06:11:28;;;;;;;12.18;9.95;;;20.20;99.90;;;;;;5117148;28;20192;-84
2021/06/28 06:13:56;;;;;;;12.50;10.73;;;20.40;99.90;;;;;;5116537;28;20200;-83
2021/06/28 06:16:24;;;;;;;13.32;11.57;;;20.50;99.90;;;;;;5116297;28;20196;-80
2021/06/28 06:18:51;;;;;;;13.07;10.02;;;20.80;99.90;;;;;;5136923;27;20230;-82
2021/06/28 06:21:17;;;;;;;11.63;10.43;;;21.10;99.90;;;;;;5136374;27;20309;-82
2021/06/28 06:23:44;;;;;;;11.82;10.60;;;21.60;99.90;;;;;;5136774;27;20187;-80
2021/06/28 06:26:11;;;;;;;12.38;9.10;;;22.10;99.90;;;;;;5133916;27;20206;-82
2021/06/28 06:28:38;;;;;;;9.80;8.88;;;22.50;99.90;;;;;;5115644;28;20200;-81
2021/06/28 06:31:06;;;;;;;10.23;9.13;;;23.00;99.90;;;;;;5116171;28;20218;-82
2021/06/28 06:33:33;;;;;;;9.40;8.45;;;23.50;99.90;;;;;;5135137;27;20221;-83
2021/06/28 06:36:00;;;;;;;10.80;9.60;;;23.90;99.90;;;;;;5135998;27;20278;-83
2021/06/28 06:38:27;;;;;;;9.88;8.80;;;24.10;99.90;;;;;;5136613;27;20191;-83
2021/06/28 06:40:53;;;;;;;8.15;7.35;;;24.30;99.90;;;;;;5119192;27;20223;-84
2021/06/28 06:43:20;;;;;;;10.00;8.77;;;24.50;99.90;;;;;;5115574;28;20195;-81
2021/06/28 06:45:47;;;;;;;8.05;7.25;;;24.70;99.90;;;;;;5115734;28;20460;-84
2021/06/28 06:48:16;;;;;;;8.40;7.60;;;25.00;99.90;;;;;;5115186;28;20208;-82
2021/06/28 06:50:43;;;;;;;10.57;8.50;;;25.00;99.90;;;;;;5115067;28;20606;-85
2021/06/28 06:53:09;;;;;;;8.07;7.32;;;25.20;99.90;;;;;;5115811;28;20219;-84
2021/06/28 06:55:37;;;;;;;8.40;6.95;;;25.10;99.90;;;;;;5114839;28;20214;-81
2021/06/28 06:58:08;;;;;;;8.65;7.85;;;25.00;99.90;;;;;;5115623;28;20192;-82
2021/06/28 07:00:35;;;;;;;9.15;8.25;;;24.80;99.90;;;;;;5115500;28;20550;-83
2021/06/28 07:03:02;;;;;;;8.45;7.65;;;24.60;99.90;;;;;;5114767;28;20509;-83
2021/06/28 07:05:34;;;;;;;9.93;8.43;;;24.80;99.90;;;;;;5115510;28;20285;-82
2021/06/28 07:08:00;;;;;;;8.60;7.70;;;25.00;99.90;;;;;;5115493;28;20195;-82
2021/06/28 07:10:27;;;;;;;8.68;7.07;;;25.00;99.90;;;;;;5115512;28;20223;-82
2021/06/28 07:12:54;;;;;;;11.82;6.82;;;25.00;99.90;;;;;;5119972;28;20199;-81
2021/06/28 07:15:22;;;;;;;8.07;7.28;;;25.30;99.90;;;;;;5119855;28;20230;-83
2021/06/28 07:17:50;;;;;;;8.98;7.63;;;25.60;99.90;;;;;;5118772;28;20234;-82
2021/06/28 07:20:21;;;;;;;9.68;8.68;;;25.60;99.90;;;;;;5119110;28;20219;-83
2021/06/28 07:22:50;;;;;;;8.38;7.57;;;25.50;99.90;;;;;;5124380;28;20211;-82
2021/06/28 07:25:17;;;;;;;8.45;7.65;;;25.40;99.90;;;;;;5122806;28;20204;-82
2021/06/28 07:27:44;;;;;;;7.50;6.72;;;25.20;99.90;;;;;;5119646;28;20207;-82
2021/06/28 07:30:13;;;;;;;7.93;7.22;;;25.00;99.90;;;;;;5135787;27;20210;-82
2021/06/28 07:32:40;;;;;;;9.65;8.60;;;24.90;99.90;;;;;;5139548;27;20217;-82
2021/06/28 07:35:09;;;;;;;8.23;7.43;;;24.60;99.90;;;;;;5139873;27;20195;-82
2021/06/28 07:37:36;;;;;;;12.80;9.75;;;24.30;99.90;;;;;;5139767;27;20207;-81
2021/06/28 07:40:06;;;;;;;9.73;8.82;;;23.90;99.90;;;;;;5137389;27;20622;-80
2021/06/28 07:42:33;;;;;;;10.80;8.90;;;23.60;99.90;;;;;;5139734;27;20203;-82
2021/06/28 07:45:00;;;;;;;10.23;8.63;;;23.40;99.90;;;;;;5139038;27;20187;-80
2021/06/28 07:47:27;;;;;;;10.40;8.90;;;23.40;99.90;;;;;;5123895;27;20545;-81
2021/06/28 07:49:53;;;;;;;10.35;8.88;;;23.70;99.90;;;;;;5119266;28;20257;-83
2021/06/28 07:52:20;;;;;;;8.77;7.90;;;24.10;99.90;;;;;;5118376;28;20489;-82
2021/06/28 07:54:47;;;;;;;9.15;8.30;;;24.30;99.90;;;;;;5118665;28;20701;-80
2021/06/28 07:57:16;;;;;;;10.55;9.15;;;24.60;99.90;;;;;;5118765;27;20210;-81
2021/06/28 07:59:42;;;;;;;10.57;8.80;;;24.80;99.90;;;;;;5118283;28;20204;-82
2021/06/28 08:02:09;;;;;;;9.48;8.65;;;25.10;99.90;;;;;;5118875;27;20255;-78
2021/06/28 08:04:36;;;;;;;9.02;7.93;;;25.30;99.90;;;;;;5118681;28;20283;-82
2021/06/28 08:07:03;;;;;;;9.32;8.40;;;25.40;99.90;;;;;;5117896;28;20208;-82
2021/06/28 08:09:30;;;;;;;10.20;8.65;;;25.40;99.90;;;;;;5118528;28;20208;-82
2021/06/28 08:11:58;;;;;;;10.10;9.20;;;25.70;99.90;;;;;;5118486;28;20607;-80
2021/06/28 08:14:27;;;;;;;12.57;8.95;;;25.80;99.90;;;;;;5118076;28;20206;-82
2021/06/28 08:16:53;;;;;;;10.82;7.18;;;25.90;99.90;;;;;;5124208;27;20207;-83
2021/06/28 08:19:20;;;;;;;10.07;7.63;;;26.20;99.90;;;;;;5138848;27;20227;-81
2021/06/28 08:21:48;;;;;;;8.15;7.35;;;26.40;99.90;;;;;;5136440;27;20234;-83
2021/06/28 08:24:16;;;;;;;10.48;9.15;;;26.80;99.90;;;;;;5138959;27;20224;-83
2021/06/28 08:26:44;;;;;;;7.35;6.65;;;27.10;99.90;;;;;;5136539;27;20195;-82
2021/06/28 08:29:11;;;;;;;7.75;7.05;;;27.30;99.90;;;;;;5117980;28;20195;-81
2021/06/28 08:31:40;;;;;;;9.38;7.28;;;27.80;99.90;;;;;;5118705;28;20296;-82
2021/06/28 08:34:07;;;;;;;8.05;7.22;;;28.10;99.90;;;;;;5118071;28;20204;-81
2021/06/28 08:36:33;;;;;;;8.50;7.45;;;28.20;99.90;;;;;;5133853;27;20207;-81
2021/06/28 08:39:00;;;;;;;9.40;8.50;;;28.10;99.90;;;;;;5138663;27;20206;-80
2021/06/28 08:41:28;;;;;;;10.18;9.20;;;27.70;99.90;;;;;;5137888;27;21089;-79
2021/06/28 08:43:55;;;;;;;7.63;6.93;;;27.40;99.90;;;;;;5132393;27;20196;-80
2021/06/28 08:46:22;;;;;;;9.10;8.20;;;27.10;99.90;;;;;;5125210;28;20199;-80
2021/06/28 08:48:50;;;;;;;7.68;6.97;;;27.20;99.90;;;;;;5118195;28;20222;-79
2021/06/28 08:51:18;;;;;;;9.70;8.80;;;27.20;99.90;;;;;;5135770;27;20211;-82
2021/06/28 08:53:52;;;;;;;9.68;8.68;;;27.40;99.90;;;;;;5134841;27;20208;-82
2021/06/28 08:56:19;;;;;;;8.13;7.32;;;27.50;99.90;;;;;;5117214;28;20192;-81
2021/06/28 08:58:45;;;;;;;7.55;6.75;;;27.90;99.90;;;;;;5117801;28;20203;-80
2021/06/28 09:01:12;;;;;;;8.45;7.75;;;28.30;99.90;;;;;;5136352;27;20218;-81
2021/06/28 09:03:40;;;;;;;7.32;6.72;;;28.50;99.90;;;;;;5137418;27;20237;-80
2021/06/28 09:06:10;;;;;;;9.60;8.60;;;28.90;99.90;;;;;;5137931;27;20528;-80
2021/06/28 09:08:37;;;;;;;7.63;6.93;;;28.80;99.90;;;;;;5130978;27;20552;-81
2021/06/28 09:11:04;;;;;;;7.40;6.70;;;28.80;99.90;;;;;;5116698;28;20218;-81
2021/06/28 09:13:39;;;;;;;9.32;7.20;;;28.90;99.90;;;;;;5134702;27;20195;-81
2021/06/28 09:16:17;;;;;;;8.40;7.20;;;29.10;99.90;;;;;;5137910;27;20187;-80
2021/06/28 09:18:52;;;;;;;9.80;8.90;;;29.40;99.90;;;;;;5137699;27;20807;-81
2021/06/28 09:21:26;;;;;;;8.52;7.47;;;29.20;99.90;;;;;;5130309;27;20215;-81
2021/06/28 09:23:52;;;;;;;7.32;6.55;;;28.90;99.90;;;;;;5116444;28;20191;-80
2021/06/28 09:26:20;;;;;;;9.73;8.82;;;29.40;99.90;;;;;;5116708;28;20200;-80
2021/06/28 09:28:49;;;;;;;6.95;6.35;;;29.10;99.90;;;;;;5117398;28;20533;-80
2021/06/28 09:31:19;;;;;;;8.95;8.05;;;29.50;99.90;;;;;;5116526;28;20192;-80
2021/06/28 09:34:04;;;;;;;10.52;9.52;;;29.80;99.90;;;;;;5123584;27;20199;-82
2021/06/28 09:36:42;;;;;;;9.48;8.60;;;29.80;99.90;;;;;;5137742;27;20191;-82
2021/06/28 09:39:17;;;;;;;9.25;8.35;;;29.80;99.90;;;;;;5117991;27;20514;-82
2021/06/28 09:41:44;;;;;;;8.80;7.97;;;29.80;99.90;;;;;;5117344;28;20225;-82
2021/06/28 09:44:11;;;;;;;7.70;6.88;;;29.70;99.90;;;;;;5116732;28;20192;-81
2021/06/28 09:46:38;;;;;;;10.80;9.70;;;29.50;99.90;;;;;;5108140;28;20191;-83
2021/06/28 09:49:06;;;;;;;8.50;7.70;;;29.00;99.90;;;;;;5136000;27;20214;-82
2021/06/28 09:51:36;;;;;;;7.63;6.95;;;29.20;99.90;;;;;;5136924;27;20196;-80
2021/06/28 09:54:20;;;;;;;8.05;7.25;;;29.60;99.90;;;;;;5136715;27;20203;-81
2021/06/28 09:56:50;;;;;;;9.43;8.63;;;29.90;99.90;;;;;;5135446;27;20211;-82
2021/06/28 09:59:31;;;;;;;9.40;8.63;;;29.60;99.90;;;;;;5136694;27;20245;-80
2021/06/28 10:02:18;;;;;;;8.75;8.05;;;29.30;99.90;;;;;;5137469;27;20294;-81
2021/06/28 10:04:50;;;;;;;9.38;8.35;;;28.90;99.90;;;;;;5137322;27;20238;-85
2021/06/28 10:07:27;;;;;;;9.65;8.85;;;28.90;99.90;;;;;;5116551;28;20206;-81
2021/06/28 10:10:22;;;;;;;8.88;8.10;;;28.90;99.90;;;;;;5115358;28;20242;-80
2021/06/28 10:13:01;;;;;;;7.30;6.70;;;28.70;99.90;;;;;;5094634;27;20200;-81
2021/06/28 10:15:29;;;;;;;7.38;6.70;;;28.60;99.90;;;;;;5113977;28;20203;-83
2021/06/28 10:17:57;;;;;;;8.68;7.88;;;28.70;99.90;;;;;;5114508;28;20322;-81
2021/06/28 10:20:26;;;;;;;9.85;8.95;;;28.80;99.90;;;;;;5113458;27;20214;-82
2021/06/28 10:22:55;;;;;;;10.10;9.20;;;28.30;99.90;;;;;;5135043;27;20528;-82
2021/06/28 10:25:24;;;;;;;10.90;9.93;;;28.30;99.90;;;;;;5135492;27;20195;-83
2021/06/28 10:27:52;;;;;;;8.88;8.07;;;28.20;99.90;;;;;;5134436;27;20206;-82
2021/06/28 10:30:21;;;;;;;10.77;9.77;;;28.10;99.90;;;;;;5122627;27;20198;-81
2021/06/28 10:32:50;;;;;;;9.25;8.45;;;28.00;99.90;;;;;;5135202;27;20194;-82
2021/06/28 10:35:24;;;;;;;8.98;8.18;;;28.10;99.90;;;;;;5120624;27;20196;-82
2021/06/28 10:37:52;;;;;;;11.93;10.63;;;28.00;99.90;;;;;;5114510;28;20592;-82
2021/06/28 10:40:24;;;;;;;12.02;10.43;;;27.80;99.90;;;;;;5113888;28;20486;-82
2021/06/28 10:42:53;;;;;;;9.82;8.75;;;27.60;99.90;;;;;;5113449;27;20262;-82
2021/06/28 10:45:38;;;;;;;12.93;11.73;;;27.40;99.90;;;;;;5113801;28;20207;-81
2021/06/28 10:48:11;;;;;;;11.75;10.55;;;27.00;99.90;;;;;;5113963;28;20192;-81
2021/06/28 10:50:50;;;;;;;10.80;9.68;;;26.90;99.90;;;;;;5113605;28;20253;-81
2021/06/28 10:53:18;;;;;;;9.68;8.77;;;26.80;99.90;;;;;;5123093;27;20233;-82
2021/06/28 10:55:46;;;;;;;11.27;10.18;;;26.70;99.90;;;;;;5134120;27;20188;-82
2021/06/28 10:58:33;;;;;;;13.18;11.80;;;26.50;99.90;;;;;;5129048;27;20207;-80
2021/06/28 11:01:09;;;;;;;15.23;13.80;;;26.30;99.90;;;;;;5113824;28;20584;-81
2021/06/28 11:03:37;;;;;;;13.35;11.88;;;26.00;99.90;;;;;;5113015;28;20214;-80
2021/06/28 11:06:24;;;;;;;11.68;10.50;;;25.70;99.90;;;;;;5121778;28;20226;-82
2021/06/28 11:09:05;;;;;;;9.65;8.82;;;25.70;99.90;;;;;;5131897;28;20200;-81
2021/06/28 11:11:58;;;;;;;14.38;13.02;;;25.70;99.90;;;;;;5113958;28;20199;-82
2021/06/28 11:14:39;;;;;;;12.02;10.77;;;25.70;99.90;;;;;;5120590;28;20199;-82
2021/06/28 11:17:08;;;;;;;14.25;12.90;;;25.80;99.90;;;;;;5104586;28;20196;-81
2021/06/28 11:19:52;;;;;;;13.75;12.35;;;25.50;99.90;;;;;;5115596;28;20240;-81
2021/06/28 11:23:00;;;;;;;15.40;13.93;;;25.30;99.90;;;;;;5113715;28;20291;-82
2021/06/28 11:25:36;;;;;;;13.52;12.30;;;25.30;99.90;;;;;;5107204;28;20211;-81
2021/06/28 11:28:20;;;;;;;10.27;9.27;;;25.30;99.90;;;;;;5113352;28;20638;-81
2021/06/28 11:30:55;;;;;;;12.00;10.75;;;25.30;99.90;;;;;;5112882;28;20524;-81
2021/06/28 11:33:36;;;;;;;13.93;12.43;;;25.20;99.90;;;;;;5113266;28;20207;-81
2021/06/28 11:36:05;;;;;;;12.77;11.32;;;25.10;99.90;;;;;;5112672;28;20211;-80
2021/06/28 11:38:38;;;;;;;10.75;9.75;;;25.00;99.90;;;;;;5113114;28;20311;-80
2021/06/28 11:41:17;;;;;;;12.35;11.05;;;25.10;99.90;;;;;;5134009;28;20195;-81
2021/06/28 11:43:48;;;;;;;10.65;9.75;;;25.10;99.90;;;;;;5134446;28;20254;-83
2021/06/28 11:46:16;;;;;;;12.55;11.27;;;25.10;99.90;;;;;;5130831;28;20219;-85
2021/06/28 11:48:47;;;;;;;11.73;10.73;;;25.00;99.90;;;;;;5113473;28;20199;-84
2021/06/28 11:51:17;;;;;;;11.30;10.30;;;25.00;99.90;;;;;;5094506;28;20276;-85
2021/06/28 11:53:50;;;;;;;13.98;12.68;;;25.00;99.90;;;;;;5094465;28;20234;-86
2021/06/28 11:56:26;;;;;;;12.27;11.10;;;24.80;99.90;;;;;;5108786;28;20208;-86
2021/06/28 11:58:59;;;;;;;10.40;9.43;;;24.70;99.90;;;;;;5118641;27;20192;-83
2021/06/28 12:01:30;;;;;;;8.80;8.00;;;24.70;99.90;;;;;;5139345;27;20212;-85
2021/06/28 12:03:58;;;;;;;11.57;10.32;;;24.80;99.90;;;;;;5139231;27;20239;-85
2021/06/28 12:06:28;;;;;;;14.93;13.43;;;24.90;99.90;;;;;;5139297;27;20202;-85
2021/06/28 12:09:05;;;;;;;9.57;8.68;;;24.70;99.90;;;;;;5135527;27;20673;-84
2021/06/28 12:11:32;;;;;;;12.52;11.40;;;24.70;99.90;;;;;;5118605;28;20278;-84
2021/06/28 12:14:01;;;;;;;13.15;11.77;;;24.80;99.90;;;;;;5118628;28;20195;-84
2021/06/28 12:16:29;;;;;;;12.35;11.07;;;24.80;99.90;;;;;;5118880;28;20192;-85
2021/06/28 12:19:04;;;;;;;11.13;10.02;;;24.90;99.90;;;;;;5117306;28;20242;-86
2021/06/28 12:21:32;;;;;;;10.98;9.50;;;24.80;99.90;;;;;;5117825;28;20215;-84
2021/06/28 12:24:11;;;;;;;11.70;10.60;;;24.90;99.90;;;;;;5118279;28;20207;-85
2021/06/28 12:26:40;;;;;;;9.02;8.23;;;25.00;99.90;;;;;;5117966;28;20196;-85
2021/06/28 12:29:39;;;;;;;11.52;9.80;;;25.00;99.90;;;;;;5118519;28;20200;-84
2021/06/28 12:32:15;;;;;;;9.70;8.77;;;25.00;99.90;;;;;;5097620;28;20197;-86
2021/06/28 12:34:47;;;;;;;7.53;6.88;;;25.00;99.90;;;;;;5108215;28;20294;-86
2021/06/28 12:37:21;;;;;;;11.43;10.32;;;25.00;99.90;;;;;;5118708;28;20184;-83
2021/06/28 12:39:48;;;;;;;14.90;12.20;;;25.10;99.90;;;;;;5118652;28;20192;-84
2021/06/28 12:42:18;;;;;;;10.48;9.57;;;25.00;99.90;;;;;;5102731;28;20228;-85
2021/06/28 12:44:47;;;;;;;11.90;10.70;;;24.90;99.90;;;;;;5097734;28;20204;-85